Centerville, MA (02632)

3:42 AM EDT on August 04, 2015 (GMT -0400)
Centerville | | Change Station
CLOSE
Current Station
Personal Weather Station
Location: Massachusetts, MA
Elevation: 56 ft
Nearby Weather Stations

Elev 56 ft 41.67 °N, 70.37 °W | Updated 2 seconds ago

Overcast
Overcast
76.0 °F
Feels Like 75 °F
N
3.0
Wind Variable Wind from WNW
Gusts 10.0 mph

Today
High -- | Low -- °F
--% Chance of Precip.
Yesterday
High -- | Low -- °F
Precip. -- in
5:38 AM 7:55 PM
Waning Gibbous, 80% visible
Pressure 29.84 in
Visibility 10.0 miles
Clouds Mostly Cloudy 1000 ft
Overcast 1800 ft
Heat Index 75 °F
Dew Point 74 °F
Humidity 95%
Rainfall 0.00 in
Snow Depth Not available.
UV 0 out of 12
Pollen 7.20 out of 12
Air Quality Not available.
Flu Activity Not available.
METAR KHYA 040656Z AUTO 23014KT 10SM BKN010 OVC018 26/23 A2984 RMK AO2 SLP105 T02560228

More Conditions Fewer Conditions

Pressure 29.84 in
Visibility 10.0 miles
Clouds Mostly Cloudy 1000 ft
Overcast 1800 ft
Heat Index 75 °F
Dew Point 74 °F
Humidity 95%
Rainfall 0.00 in
Snow Depth Not available.
UV 0 out of 12
Pollen 7.20 out of 12
Air Quality Not available.
Flu Activity Not available.
METAR KHYA 040656Z AUTO 23014KT 10SM BKN010 OVC018 26/23 A2984 RMK AO2 SLP105 T02560228

More Conditions Fewer Conditions

10-Day Weather Forecast

×

Almanac

Astronomy

Aug. 04, 2015 Rise Set
Actual Time
Civil Twilight
Nautical Twilight
Astronomical Twilight
Moon
Length of Visible Light
Length of Day
Tomorrow will be .
, % of the Moon is Illuminated

Today's Extremes

State Highs State Lows

Community

WunderPhotos

Upload Photos

1,843,877 photos uploaded!

WunderBlogs® & News

Nearby

Air Quality

  Air Quality AQ Index Pollutant
Not available.

Snow Depth

Station Depth Elevation

Earthquake Activity

City Distance Mag. Time & Date
Minimum magnitude displayed is 2.5.

Coastal Water Temperatures

Place Temperature

Stations

Nearby Weather Stations

Station Location Temp. Windchill Dew Point Humidity Wind Precip. Elev Updated Type